Ontario, OR

9:42 AM MDT on September 01, 2014 (GMT -0600)
Iowa Ave and Highway 52 | Change Station
CLOSE
Current Station
Personal Weather Station
Location: Payette, ID
Elevation: 2300 ft
Nearby Weather Stations

Elev 2300 ft 44.06 °N, 116.91 °W | Updated 59 seconds ago

Clear
Clear
67.8 °F
Feels Like 67.8 °F
N
1.1
Wind Variable Wind from WSW

Today
High -- | Low -- °F
--% Chance of Precip.
Yesterday
High -- | Low -- °F
Precip. -- in
7:11 AM 8:23 PM
Waxing Crescent, 42% visible
Pressure 30.06 in
Visibility 10.0 miles
Clouds Clear
Dew Point 47 °F
Humidity 48%
Rainfall 0.00 in
Snow Depth Not available.
UV 0 out of 12
Pollen 7.30 out of 12
Air Quality Not available.
Flu Activity Not available.
METAR KONO 011353Z AUTO 29007KT 10SM CLR 14/06 A3008 RMK AO2 SLP180 T01390061

More Conditions Fewer Conditions

Pressure 30.06 in
Visibility 10.0 miles
Clouds Clear
Dew Point 47 °F
Humidity 48%
Rainfall 0.00 in
Snow Depth Not available.
UV 0 out of 12
Pollen 7.30 out of 12
Air Quality Not available.
Flu Activity Not available.
METAR KONO 011353Z AUTO 29007KT 10SM CLR 14/06 A3008 RMK AO2 SLP180 T01390061

More Conditions Fewer Conditions

10-Day Weather Forecast

Almanac

Astronomy

Sep. 01, 2014 Rise Set
Actual Time 7:11 AM MDT 8:23 PM MDT
Civil Twilight 6:41 AM MDT 8:53 PM MDT
Nautical Twilight 6:05 AM MDT 9:28 PM MDT
Astronomical Twilight 5:27 AM MDT 10:06 PM MDT
Moon 2:15 PM MDT No Moon Set
Length of Visible Light 14h 11m
Length of Day
13h 12m
Tomorrow will be 2m 56s shorter.
Waxing Crescent, 42% of the Moon is Illuminated
Today
Waxing Crescent
Sep 2
First Quarter
Sep 8
Full
Sep 15
Last Quarter
Sep 24
New

Today's Extremes

State Highs State Lows

Community

WunderPhotos

Upload Photos

1,749,276 photos uploaded!

Nearby

Snow Depth

Station Depth Elevation
Schneider Meadows 0 in 5400 ft
Blue Mountain Spring 0 in 5900 ft
Bourne 1 in 5800 ft
Lake Creek R.S. 0 in 5200 ft
Tipton 0 in 5150 ft

Earthquake Activity

City Distance Mag. Time & Date
No recent earthquake activity has been reported nearby.
Minimum magnitude displayed is 2.5.

Coastal Water Temperatures

Place Temperature
No Stations Reporting

Nearby Weather Stations